createdAt,value
2018-09-12T00:00:49.791Z,15.20
2018-09-12T00:03:19.047Z,15.20
2018-09-12T00:05:48.331Z,15.20
2018-09-12T00:08:17.512Z,15.10
2018-09-12T00:10:46.820Z,15.00
2018-09-12T00:13:16.127Z,14.90
2018-09-12T00:15:45.425Z,14.80
2018-09-12T00:18:14.691Z,14.80
2018-09-12T00:20:43.983Z,14.80
2018-09-12T00:23:13.254Z,14.70
2018-09-12T00:25:42.466Z,14.70
2018-09-12T00:28:11.741Z,14.60
2018-09-12T00:30:40.985Z,14.50
2018-09-12T00:33:10.267Z,14.50
2018-09-12T00:35:39.542Z,14.40
2018-09-12T00:38:08.806Z,14.40
2018-09-12T00:40:38.167Z,14.30
2018-09-12T00:43:07.465Z,14.40
2018-09-12T00:45:36.770Z,14.30
2018-09-12T00:48:06.159Z,14.20
2018-09-12T00:50:35.517Z,14.20
2018-09-12T00:53:04.824Z,14.10
2018-09-12T00:55:34.120Z,14.20
2018-09-12T00:58:03.381Z,14.30
2018-09-12T01:00:32.866Z,14.30
2018-09-12T01:03:02.254Z,14.30
2018-09-12T01:05:31.575Z,14.40
2018-09-12T01:08:00.910Z,14.30
2018-09-12T01:10:30.233Z,14.30
2018-09-12T01:12:59.483Z,14.30
2018-09-12T01:15:28.800Z,14.30
2018-09-12T01:17:58.139Z,14.20
2018-09-12T01:20:27.400Z,14.00
2018-09-12T01:22:56.740Z,13.90
2018-09-12T01:25:25.995Z,13.80
2018-09-12T01:27:58.307Z,13.70
2018-09-12T01:30:27.562Z,13.60
2018-09-12T01:32:57.794Z,13.40
2018-09-12T01:35:27.098Z,13.40
2018-09-12T01:37:56.391Z,13.30
2018-09-12T01:40:25.662Z,13.30
2018-09-12T01:42:54.971Z,13.30
2018-09-12T01:45:24.250Z,13.30
2018-09-12T01:47:53.531Z,13.20
2018-09-12T01:50:22.741Z,13.20
2018-09-12T01:52:52.128Z,13.20
2018-09-12T01:55:21.421Z,13.30
2018-09-12T01:57:50.726Z,13.40
2018-09-12T02:00:20.182Z,13.40
2018-09-12T02:02:49.529Z,13.30
2018-09-12T02:05:18.795Z,13.20
2018-09-12T02:07:48.108Z,13.10
2018-09-12T02:10:17.359Z,13.10
2018-09-12T02:12:46.619Z,13.10
2018-09-12T02:15:15.894Z,13.10
2018-09-12T02:17:45.165Z,13.10
2018-09-12T02:20:14.437Z,13.00
2018-09-12T02:22:43.727Z,12.90
2018-09-12T02:25:12.945Z,12.90
2018-09-12T02:27:42.275Z,12.80
2018-09-12T02:30:11.586Z,12.80
2018-09-12T02:32:40.886Z,12.70
2018-09-12T02:35:10.187Z,12.80
2018-09-12T02:37:39.394Z,12.70
2018-09-12T02:40:09.239Z,12.80
2018-09-12T02:42:38.508Z,12.70
2018-09-12T02:45:08.027Z,12.70
2018-09-12T02:47:38.452Z,12.60
2018-09-12T02:50:12.055Z,12.50
2018-09-12T02:52:41.397Z,12.50
2018-09-12T02:55:12.477Z,12.50
2018-09-12T02:57:41.822Z,12.50
2018-09-12T03:00:11.215Z,12.50
2018-09-12T03:02:40.466Z,12.40
2018-09-12T03:05:09.806Z,12.40
2018-09-12T03:07:39.094Z,12.50
2018-09-12T03:10:08.569Z,12.40
2018-09-12T03:12:37.882Z,12.40
2018-09-12T03:15:07.255Z,12.30
2018-09-12T03:17:36.546Z,12.30
2018-09-12T03:20:05.911Z,12.20
2018-09-12T03:22:35.254Z,12.20
2018-09-12T03:25:04.654Z,12.20
2018-09-12T03:27:33.920Z,12.20
2018-09-12T03:30:03.270Z,12.20
2018-09-12T03:32:32.552Z,12.20
2018-09-12T03:35:01.888Z,12.20
2018-09-12T03:37:31.249Z,12.20
2018-09-12T03:40:00.556Z,12.10
2018-09-12T03:42:29.830Z,12.10
2018-09-12T03:44:59.154Z,12.00
2018-09-12T03:47:28.494Z,12.00
2018-09-12T03:49:57.741Z,12.00
2018-09-12T03:52:26.979Z,11.90
2018-09-12T03:54:56.243Z,11.90
2018-09-12T03:57:25.470Z,11.90
2018-09-12T03:59:54.802Z,11.90
2018-09-12T04:02:24.055Z,12.00
2018-09-12T04:04:53.468Z,11.90
2018-09-12T04:07:22.802Z,11.90
2018-09-12T04:09:52.144Z,11.90
2018-09-12T04:12:21.415Z,11.80
2018-09-12T04:14:50.678Z,11.80
2018-09-12T04:17:20.011Z,11.80
2018-09-12T04:19:49.313Z,11.70
2018-09-12T04:22:18.590Z,11.70
2018-09-12T04:24:47.876Z,11.70
2018-09-12T04:27:17.147Z,11.70
2018-09-12T04:29:46.450Z,11.70
2018-09-12T04:32:15.819Z,11.70
2018-09-12T04:34:45.079Z,11.70
2018-09-12T04:37:14.447Z,11.70
2018-09-12T04:39:43.710Z,11.80
2018-09-12T04:42:12.990Z,11.80
2018-09-12T04:44:42.255Z,11.80
2018-09-12T04:47:11.662Z,11.80
2018-09-12T04:49:40.980Z,11.80
2018-09-12T04:52:10.215Z,11.80
2018-09-12T04:54:39.487Z,11.70
2018-09-12T04:57:08.808Z,11.60
2018-09-12T04:59:38.217Z,11.50
2018-09-12T05:02:07.446Z,11.50
2018-09-12T05:04:36.668Z,11.50
2018-09-12T05:07:06.111Z,11.60
2018-09-12T05:09:35.377Z,11.50
2018-09-12T05:12:04.709Z,11.30
2018-09-12T05:14:33.970Z,11.30
2018-09-12T05:17:03.323Z,11.20
2018-09-12T05:19:32.599Z,11.20
2018-09-12T05:22:01.883Z,11.20
2018-09-12T05:24:31.266Z,11.20
2018-09-12T05:27:00.575Z,11.20
2018-09-12T05:29:29.833Z,11.30
2018-09-12T05:31:59.260Z,11.30
2018-09-12T05:34:28.655Z,11.30
2018-09-12T05:36:57.946Z,11.30
2018-09-12T05:39:27.207Z,11.40
2018-09-12T05:41:56.514Z,11.40
2018-09-12T05:44:25.762Z,11.50
2018-09-12T05:46:55.031Z,11.60
2018-09-12T05:49:24.391Z,11.50
2018-09-12T05:51:53.671Z,11.50
2018-09-12T05:54:22.964Z,11.60
2018-09-12T05:56:52.274Z,11.60
2018-09-12T05:59:21.606Z,11.70
2018-09-12T06:01:50.891Z,11.70
2018-09-12T06:04:20.254Z,11.70
2018-09-12T06:06:49.737Z,11.80
2018-09-12T06:09:18.894Z,11.80
2018-09-12T06:11:48.182Z,11.80
2018-09-12T06:14:17.569Z,11.90
2018-09-12T06:16:46.843Z,12.00
2018-09-12T06:19:16.158Z,12.00
2018-09-12T06:21:45.440Z,12.10
2018-09-12T06:24:14.743Z,12.20
2018-09-12T06:26:44.046Z,12.30
2018-09-12T06:29:13.392Z,12.40
2018-09-12T06:31:42.578Z,12.50
2018-09-12T06:34:11.867Z,12.60
2018-09-12T06:36:41.163Z,12.70
2018-09-12T06:39:12.245Z,12.80
2018-09-12T06:41:41.562Z,12.90
2018-09-12T06:44:10.907Z,13.10
2018-09-12T06:46:40.233Z,13.20
2018-09-12T06:49:09.584Z,13.40
2018-09-12T06:51:38.909Z,13.50
2018-09-12T06:54:08.287Z,13.70
2018-09-12T06:56:37.606Z,13.90
2018-09-12T06:59:06.882Z,14.10
2018-09-12T07:01:36.135Z,14.30
2018-09-12T07:04:05.482Z,14.50
2018-09-12T07:06:34.847Z,14.70
2018-09-12T07:09:05.614Z,14.80
2018-09-12T07:11:34.921Z,15.00
2018-09-12T07:14:04.414Z,15.20
2018-09-12T07:16:33.683Z,15.50
2018-09-12T07:19:03.033Z,15.70
2018-09-12T07:21:32.375Z,15.80
2018-09-12T07:24:01.818Z,16.10
2018-09-12T07:26:31.050Z,16.30
2018-09-12T07:29:00.351Z,16.50
2018-09-12T07:31:29.599Z,16.80
2018-09-12T07:33:58.940Z,16.90
2018-09-12T07:36:28.231Z,17.20
2018-09-12T07:38:57.830Z,17.40
2018-09-12T07:41:27.278Z,17.60
2018-09-12T07:43:56.623Z,17.80
2018-09-12T07:46:25.899Z,18.20
2018-09-12T07:48:55.268Z,18.40
2018-09-12T07:51:24.500Z,18.60
2018-09-12T07:53:53.835Z,18.80
2018-09-12T07:56:23.175Z,19.00
2018-09-12T07:58:52.548Z,19.10
2018-09-12T08:01:21.862Z,19.40
2018-09-12T08:03:51.194Z,19.70
2018-09-12T08:06:20.756Z,19.90
2018-09-12T08:08:50.056Z,20.20
2018-09-12T08:11:19.473Z,20.40
2018-09-12T08:13:48.764Z,20.70
2018-09-12T08:18:46.906Z,21.10
2018-09-12T08:21:16.259Z,21.40
2018-09-12T08:23:45.558Z,21.70
2018-09-12T08:26:14.910Z,21.90
2018-09-12T08:28:44.145Z,22.30
2018-09-12T08:31:13.474Z,22.40
2018-09-12T08:33:42.766Z,22.50
2018-09-12T08:36:12.090Z,22.60
2018-09-12T08:38:41.381Z,23.00
2018-09-12T08:41:10.683Z,23.20
2018-09-12T08:43:39.893Z,23.60
2018-09-12T08:46:09.192Z,23.90
2018-09-12T08:48:38.523Z,24.20
2018-09-12T08:51:07.785Z,24.60
2018-09-12T08:53:37.063Z,24.90
2018-09-12T08:56:06.442Z,25.10
2018-09-12T08:58:35.667Z,25.40
2018-09-12T09:01:04.982Z,25.70
2018-09-12T09:03:34.323Z,26.00
2018-09-12T09:06:03.688Z,26.30
2018-09-12T09:08:33.084Z,26.60
2018-09-12T09:11:02.501Z,26.90
2018-09-12T09:13:31.788Z,27.00
2018-09-12T09:16:01.045Z,27.20
2018-09-12T09:18:30.241Z,27.50
2018-09-12T09:20:59.503Z,27.40
2018-09-12T09:23:28.697Z,27.50
2018-09-12T09:25:58.032Z,27.70
2018-09-12T09:28:27.303Z,27.80
2018-09-12T09:30:56.502Z,27.90
2018-09-12T09:33:25.831Z,28.00
2018-09-12T09:35:55.134Z,28.20
2018-09-12T09:38:24.413Z,28.50
2018-09-12T09:40:53.722Z,28.60
2018-09-12T09:43:22.963Z,28.80
2018-09-12T09:45:52.302Z,29.00
2018-09-12T09:48:21.671Z,29.50
2018-09-12T09:50:50.938Z,29.80
2018-09-12T09:53:20.275Z,29.90
2018-09-12T09:55:49.523Z,29.90
2018-09-12T09:58:18.804Z,29.90
2018-09-12T10:00:53.255Z,29.80
2018-09-12T10:03:27.653Z,29.90
2018-09-12T10:06:02.057Z,30.10
2018-09-12T10:08:35.390Z,30.30
2018-09-12T10:11:04.753Z,30.50
2018-09-12T10:13:34.166Z,30.50
2018-09-12T10:16:03.564Z,30.60
2018-09-12T10:18:32.880Z,30.50
2018-09-12T10:21:02.107Z,30.80
2018-09-12T10:23:31.393Z,31.00
2018-09-12T10:26:00.690Z,31.10
2018-09-12T10:28:29.991Z,30.90
2018-09-12T10:30:59.220Z,30.80
2018-09-12T10:33:28.507Z,30.80
2018-09-12T10:35:57.834Z,30.90
2018-09-12T10:38:27.194Z,30.80
2018-09-12T10:40:56.476Z,31.00
2018-09-12T10:43:25.799Z,31.60
2018-09-12T10:45:55.103Z,31.70
2018-09-12T10:48:24.395Z,31.80
2018-09-12T10:53:22.452Z,32.10
2018-09-12T10:55:51.685Z,31.90
2018-09-12T10:58:21.050Z,31.50
2018-09-12T11:00:50.263Z,31.70
2018-09-12T11:03:19.557Z,31.80
2018-09-12T11:05:48.803Z,32.20
2018-09-12T11:08:18.135Z,32.50
2018-09-12T11:10:47.623Z,32.60
2018-09-12T11:13:17.106Z,32.50
2018-09-12T11:15:46.469Z,32.60
2018-09-12T11:18:15.886Z,32.20
2018-09-12T11:20:45.171Z,32.40
2018-09-12T11:23:14.566Z,32.40
2018-09-12T11:25:43.948Z,32.20
2018-09-12T11:28:13.256Z,32.60
2018-09-12T11:30:42.579Z,32.90
2018-09-12T11:33:11.886Z,32.90
2018-09-12T11:35:41.227Z,33.30
2018-09-12T11:38:10.568Z,33.20
2018-09-12T11:40:39.917Z,33.50
2018-09-12T11:43:09.219Z,33.20
2018-09-12T11:45:38.571Z,33.00
2018-09-12T11:48:07.894Z,33.10
2018-09-12T11:50:37.287Z,33.50
2018-09-12T11:53:06.580Z,33.60
2018-09-12T11:55:36.108Z,33.90
2018-09-12T11:58:05.434Z,33.80
2018-09-12T12:00:34.757Z,33.60
2018-09-12T12:03:04.091Z,33.60
2018-09-12T12:05:33.435Z,33.70
2018-09-12T12:08:02.746Z,33.90
2018-09-12T12:10:32.118Z,34.10
2018-09-12T12:13:01.398Z,33.80
2018-09-12T12:15:30.658Z,34.30
2018-09-12T12:18:00.095Z,34.00
2018-09-12T12:20:29.484Z,33.90
2018-09-12T12:22:58.714Z,34.00
2018-09-12T12:25:27.995Z,34.10
2018-09-12T12:27:57.303Z,34.40
2018-09-12T12:30:26.649Z,34.30
2018-09-12T12:32:55.890Z,34.60
2018-09-12T12:35:25.349Z,34.50
2018-09-12T12:37:54.934Z,34.70
2018-09-12T12:40:24.242Z,33.90
2018-09-12T12:42:53.540Z,34.20
2018-09-12T12:45:22.807Z,34.30
2018-09-12T12:47:52.087Z,34.20
2018-09-12T12:50:21.449Z,34.10
2018-09-12T12:52:50.810Z,34.50
2018-09-12T12:55:20.139Z,34.60
2018-09-12T12:57:49.405Z,34.60
2018-09-12T13:00:18.647Z,34.60
2018-09-12T13:02:47.926Z,34.10
2018-09-12T13:05:17.233Z,33.80
2018-09-12T13:07:46.558Z,33.60
2018-09-12T13:10:15.915Z,33.70
2018-09-12T13:12:45.230Z,34.10
2018-09-12T13:15:14.591Z,34.20
2018-09-12T13:17:43.921Z,34.20
2018-09-12T13:20:13.226Z,33.90
2018-09-12T13:22:42.588Z,33.60
2018-09-12T13:25:12.030Z,33.60
2018-09-12T13:27:41.349Z,33.70
2018-09-12T13:30:10.699Z,34.20
2018-09-12T13:32:40.091Z,33.90
2018-09-12T13:35:09.510Z,34.10
2018-09-12T13:37:38.818Z,34.70
2018-09-12T13:40:08.219Z,34.80
2018-09-12T13:42:37.584Z,34.50
2018-09-12T13:45:06.885Z,34.70
2018-09-12T13:47:36.146Z,34.70
2018-09-12T13:50:05.527Z,34.40
2018-09-12T13:52:34.943Z,34.70
2018-09-12T13:55:04.303Z,34.80
2018-09-12T13:57:33.635Z,34.70
2018-09-12T14:00:02.931Z,34.50
2018-09-12T14:02:32.334Z,34.50
2018-09-12T14:05:01.643Z,34.60
2018-09-12T14:07:30.943Z,34.50
2018-09-12T14:10:00.335Z,34.60
2018-09-12T14:12:29.626Z,34.70
2018-09-12T14:15:00.651Z,34.70
2018-09-12T14:17:30.362Z,34.40
2018-09-12T14:19:59.992Z,34.10
2018-09-12T14:22:29.333Z,34.40
2018-09-12T14:24:58.637Z,34.40
2018-09-12T14:27:27.966Z,34.30
2018-09-12T14:29:57.238Z,34.20
2018-09-12T14:32:26.594Z,34.50
2018-09-12T14:34:56.093Z,34.30
2018-09-12T14:37:25.771Z,34.40
2018-09-12T14:39:55.132Z,34.50
2018-09-12T14:42:24.462Z,34.30
2018-09-12T14:44:53.803Z,34.50
2018-09-12T14:47:23.076Z,34.50
2018-09-12T14:49:52.381Z,34.40
2018-09-12T14:52:21.705Z,34.50
2018-09-12T14:54:50.989Z,34.30
2018-09-12T14:57:20.403Z,34.20
2018-09-12T14:59:49.784Z,34.20
2018-09-12T15:02:19.116Z,34.30
2018-09-12T15:04:48.502Z,34.40
2018-09-12T15:07:17.766Z,34.30
2018-09-12T15:09:47.052Z,34.10
2018-09-12T15:12:16.334Z,34.20
2018-09-12T15:14:45.720Z,34.20
2018-09-12T15:17:15.079Z,34.20
2018-09-12T15:19:44.394Z,34.10
2018-09-12T15:22:13.798Z,33.90
2018-09-12T15:24:43.230Z,33.80
2018-09-12T15:27:12.742Z,33.80
2018-09-12T15:29:42.131Z,33.80
2018-09-12T15:32:11.442Z,33.80
2018-09-12T15:34:41.076Z,33.50
2018-09-12T15:37:10.553Z,33.30
2018-09-12T15:39:39.836Z,33.30
2018-09-12T15:42:09.125Z,33.30
2018-09-12T15:44:38.438Z,33.20
2018-09-12T15:47:07.703Z,33.10
2018-09-12T15:49:36.974Z,33.20
2018-09-12T15:52:06.539Z,33.10
2018-09-12T15:54:35.889Z,33.00
2018-09-12T15:57:05.258Z,33.00
2018-09-12T15:59:34.654Z,33.10
2018-09-12T16:02:03.920Z,33.20
2018-09-12T16:04:33.256Z,33.10
2018-09-12T16:07:02.507Z,33.00
2018-09-12T16:09:31.846Z,33.00
2018-09-12T16:12:01.067Z,33.00
2018-09-12T16:14:30.415Z,32.80
2018-09-12T16:16:59.807Z,32.80
2018-09-12T16:19:29.178Z,32.80
2018-09-12T16:21:58.479Z,32.70
2018-09-12T16:24:27.834Z,32.70
2018-09-12T16:26:57.107Z,32.50
2018-09-12T16:29:26.539Z,32.60
2018-09-12T16:31:55.917Z,32.40
2018-09-12T16:34:25.407Z,32.50
2018-09-12T16:36:54.886Z,32.30
2018-09-12T16:39:24.185Z,32.10
2018-09-12T16:41:53.450Z,32.00
2018-09-12T16:44:22.787Z,32.10
2018-09-12T16:46:52.105Z,32.20
2018-09-12T16:49:21.380Z,32.30
2018-09-12T16:51:50.693Z,32.20
2018-09-12T16:54:20.056Z,32.20
2018-09-12T16:59:18.160Z,31.70
2018-09-12T17:01:47.492Z,31.20
2018-09-12T17:04:17.563Z,31.00
2018-09-12T17:06:46.805Z,30.80
2018-09-12T17:09:16.093Z,30.80
2018-09-12T17:11:45.418Z,30.60
2018-09-12T17:14:14.877Z,30.40
2018-09-12T17:16:44.219Z,30.20
2018-09-12T17:19:13.622Z,29.90
2018-09-12T17:21:42.887Z,29.90
2018-09-12T17:24:12.187Z,29.70
2018-09-12T17:26:41.541Z,29.60
2018-09-12T17:29:10.903Z,29.40
2018-09-12T17:31:40.219Z,29.20
2018-09-12T17:34:09.511Z,28.90
2018-09-12T17:36:38.809Z,28.80
2018-09-12T17:39:09.260Z,28.70
2018-09-12T17:41:38.599Z,28.60
2018-09-12T17:44:08.042Z,28.40
2018-09-12T17:46:37.288Z,28.30
2018-09-12T17:49:06.545Z,28.20
2018-09-12T17:51:35.826Z,28.00
2018-09-12T17:54:05.150Z,27.90
2018-09-12T17:56:34.428Z,27.80
2018-09-12T17:59:03.716Z,27.60
2018-09-12T18:01:33.054Z,27.30
2018-09-12T18:04:02.362Z,27.10
2018-09-12T18:06:31.642Z,26.90
2018-09-12T18:09:00.913Z,26.40
2018-09-12T18:11:30.286Z,26.10
2018-09-12T18:13:59.589Z,25.90
2018-09-12T18:16:28.874Z,25.90
2018-09-12T18:18:58.116Z,25.20
2018-09-12T18:21:27.377Z,25.60
2018-09-12T18:23:56.702Z,25.60
2018-09-12T18:26:25.974Z,25.50
2018-09-12T18:28:55.406Z,25.30
2018-09-12T18:31:24.734Z,25.20
2018-09-12T18:33:54.069Z,25.10
2018-09-12T18:36:23.355Z,25.00
2018-09-12T18:38:52.711Z,24.70
2018-09-12T18:41:22.231Z,24.60
2018-09-12T18:43:51.575Z,24.50
2018-09-12T18:46:20.859Z,24.40
2018-09-12T18:48:50.203Z,24.40
2018-09-12T18:51:19.510Z,24.30
2018-09-12T18:53:48.853Z,24.30
2018-09-12T18:56:18.092Z,24.30
2018-09-12T18:58:47.355Z,24.20
2018-09-12T19:01:16.734Z,24.00
2018-09-12T19:03:46.052Z,23.90
2018-09-12T19:06:15.331Z,23.80
2018-09-12T19:08:44.640Z,23.60
2018-09-12T19:11:13.903Z,23.40
2018-09-12T19:13:43.269Z,23.40
2018-09-12T19:16:12.519Z,23.30
2018-09-12T19:18:41.977Z,23.10
2018-09-12T19:21:11.325Z,23.00
2018-09-12T19:23:40.702Z,22.90
2018-09-12T19:26:10.027Z,22.70
2018-09-12T19:28:39.308Z,22.70
2018-09-12T19:31:08.662Z,22.60
2018-09-12T19:33:37.967Z,22.30
2018-09-12T19:36:07.236Z,22.20
2018-09-12T19:38:36.613Z,22.10
2018-09-12T19:41:05.889Z,22.10
2018-09-12T19:43:35.306Z,22.00
2018-09-12T19:46:04.615Z,22.00
2018-09-12T19:48:33.947Z,21.90
2018-09-12T19:51:05.632Z,21.80
2018-09-12T19:53:34.962Z,21.70
2018-09-12T19:56:04.374Z,21.70
2018-09-12T19:58:33.812Z,21.80
2018-09-12T20:01:03.178Z,21.80
2018-09-12T20:03:32.488Z,21.90
2018-09-12T20:06:01.778Z,22.00
2018-09-12T20:08:31.030Z,22.00
2018-09-12T20:11:00.339Z,22.00
2018-09-12T20:13:29.742Z,22.00
2018-09-12T20:15:59.047Z,22.00
2018-09-12T20:18:28.567Z,21.90
2018-09-12T20:20:57.866Z,21.90
2018-09-12T20:23:27.267Z,21.90
2018-09-12T20:25:56.611Z,21.90
2018-09-12T20:28:25.906Z,21.90
2018-09-12T20:30:55.250Z,21.80
2018-09-12T20:33:24.590Z,21.90
2018-09-12T20:35:53.982Z,21.80
2018-09-12T20:38:23.306Z,21.80
2018-09-12T20:40:52.736Z,21.70
2018-09-12T20:43:22.083Z,21.70
2018-09-12T20:45:51.514Z,21.70
2018-09-12T20:48:20.796Z,21.70
2018-09-12T20:50:50.062Z,21.60
2018-09-12T20:53:19.330Z,21.60
2018-09-12T20:55:48.746Z,21.50
2018-09-12T20:58:18.085Z,21.50
2018-09-12T21:00:47.402Z,21.40
2018-09-12T21:03:16.703Z,21.40
2018-09-12T21:05:46.025Z,21.30
2018-09-12T21:08:15.303Z,21.30
2018-09-12T21:10:44.767Z,21.20
2018-09-12T21:13:14.088Z,21.20
2018-09-12T21:15:43.391Z,21.10
2018-09-12T21:18:12.675Z,21.10
2018-09-12T21:20:42.209Z,21.00
2018-09-12T21:23:11.547Z,21.00
2018-09-12T21:25:40.804Z,20.90
2018-09-12T21:28:10.158Z,20.90
2018-09-12T21:30:39.498Z,20.80
2018-09-12T21:33:08.923Z,20.80
2018-09-12T21:35:38.291Z,20.70
2018-09-12T21:38:07.714Z,20.70
2018-09-12T21:40:37.130Z,20.70
2018-09-12T21:43:06.506Z,20.60
2018-09-12T21:45:35.865Z,20.50
2018-09-12T21:48:05.254Z,20.50
2018-09-12T21:50:34.578Z,20.40
2018-09-12T21:53:03.859Z,20.40
2018-09-12T21:55:33.183Z,20.40
2018-09-12T21:58:02.450Z,20.30
2018-09-12T22:00:31.838Z,20.20
2018-09-12T22:03:01.096Z,20.20
2018-09-12T22:05:30.405Z,20.10
2018-09-12T22:07:59.977Z,20.00
2018-09-12T22:10:29.143Z,20.00
2018-09-12T22:12:58.470Z,20.00
2018-09-12T22:15:27.772Z,19.90
2018-09-12T22:17:57.106Z,19.90
2018-09-12T22:20:26.394Z,19.90
2018-09-12T22:22:55.671Z,19.90
2018-09-12T22:25:24.918Z,19.90
2018-09-12T22:27:54.276Z,19.80
2018-09-12T22:30:23.607Z,19.80
2018-09-12T22:32:52.931Z,19.70
2018-09-12T22:35:22.187Z,19.60
2018-09-12T22:37:51.507Z,19.50
2018-09-12T22:40:20.842Z,19.50
2018-09-12T22:42:50.123Z,19.50
2018-09-12T22:45:19.374Z,19.40
2018-09-12T22:47:48.734Z,19.40
2018-09-12T22:50:18.142Z,19.30
2018-09-12T22:52:47.506Z,19.30
2018-09-12T22:55:16.800Z,19.20
2018-09-12T22:57:46.122Z,19.20
2018-09-12T23:00:15.393Z,19.20
2018-09-12T23:02:44.644Z,19.10
2018-09-12T23:05:13.975Z,19.10
2018-09-12T23:07:43.267Z,19.10
2018-09-12T23:10:12.542Z,19.10
2018-09-12T23:12:41.807Z,19.10
2018-09-12T23:15:11.276Z,19.10
2018-09-12T23:17:40.651Z,19.00
2018-09-12T23:20:09.894Z,19.00
2018-09-12T23:22:39.215Z,18.90
2018-09-12T23:25:08.377Z,18.90
2018-09-12T23:27:37.714Z,18.80
2018-09-12T23:30:06.994Z,18.80
2018-09-12T23:32:36.337Z,18.70
2018-09-12T23:35:05.685Z,18.80
2018-09-12T23:37:35.060Z,18.70
2018-09-12T23:40:04.337Z,18.70
2018-09-12T23:42:33.748Z,18.60
2018-09-12T23:45:03.035Z,18.60
2018-09-12T23:47:32.344Z,18.60
2018-09-12T23:50:01.727Z,18.60
2018-09-12T23:52:31.022Z,18.50
2018-09-12T23:55:00.348Z,18.50
2018-09-12T23:57:29.589Z,18.50
2018-09-12T23:59:59.306Z,18.40
